KLOR/LOR METAR and TAF weather

Enter ICAO airport designator
Station Type Date Time Source
KLOR METAR 2022/06/30 13:56 UTC NOAA

KLOR 301356Z AUTO 04004KT 10SM OVC007 24/22 A3022 RMK AO2 LTG DSNT SW SLP215 T02430222


Station Type Date Time Source
KLOR Decoded METAR 2022/06/30 13:56 UTC NOAA

Fort Rucker, Lowe Army Heliport, AL, United States (KLOR) 31-21-32N 085-44-54W 93M
Jun 30, 2022 - 09:56 AM EDT / 2022.06.30 1356 UTC
Wind: from the NE (040 degrees) at 5 MPH (4 KT):0
Visibility: 10 mile(s):0
Sky conditions: overcast
Weather: Lightning observed
Temperature: 75.7 F (24.3 C)
Dew Point: 72.0 F (22.2 C)
Relative Humidity: 88%
Pressure (altimeter): 30.22 in. Hg (1023 hPa)
ob: KLOR 301356Z AUTO 04004KT 10SM OVC007 24/22 A3022 RMK AO2 LTG DSNT SW SLP215 T02430222
cycle: 14

Station Type Date Time Source
KLOR TAF UTC NOAA

Error!

Example: see airport list